createdAt,value
2022-12-29T00:01:01.159Z,1.68
2022-12-29T00:03:29.275Z,1.78
2022-12-29T00:05:57.872Z,1.64
2022-12-29T00:08:25.669Z,1.77
2022-12-29T00:10:55.077Z,1.66
2022-12-29T00:13:22.748Z,1.61
2022-12-29T00:15:50.551Z,1.60
2022-12-29T00:18:18.460Z,1.64
2022-12-29T00:20:46.225Z,1.57
2022-12-29T00:23:14.037Z,1.71
2022-12-29T00:25:42.092Z,1.65
2022-12-29T00:28:10.100Z,1.60
2022-12-29T00:30:37.999Z,1.59
2022-12-29T00:33:16.605Z,1.52
2022-12-29T00:35:53.796Z,1.61
2022-12-29T00:38:22.298Z,1.62
2022-12-29T00:40:50.980Z,1.72
2022-12-29T00:43:18.526Z,1.72
2022-12-29T00:45:46.777Z,1.48
2022-12-29T00:48:15.109Z,1.62
2022-12-29T00:50:42.772Z,1.62
2022-12-29T00:53:10.799Z,1.55
2022-12-29T00:55:38.696Z,1.53
2022-12-29T00:58:06.550Z,1.66
2022-12-29T01:00:35.442Z,1.50
2022-12-29T01:03:04.202Z,1.57
2022-12-29T01:05:32.066Z,1.53
2022-12-29T01:07:59.969Z,1.58
2022-12-29T01:10:27.671Z,1.54
2022-12-29T01:12:55.294Z,1.52
2022-12-29T01:15:23.351Z,1.71
2022-12-29T01:17:51.091Z,1.49
2022-12-29T01:20:18.946Z,1.72
2022-12-29T01:22:46.931Z,1.68
2022-12-29T01:25:14.909Z,1.51
2022-12-29T01:27:42.610Z,1.40
2022-12-29T01:30:10.960Z,1.31
2022-12-29T01:32:38.599Z,1.41
2022-12-29T01:35:06.517Z,1.33
2022-12-29T01:37:36.265Z,1.07
2022-12-29T01:40:04.165Z,1.07
2022-12-29T01:42:33.400Z,1.39
2022-12-29T01:45:12.361Z,1.13
2022-12-29T01:47:43.823Z,1.07
2022-12-29T01:50:23.543Z,1.10
2022-12-29T01:53:00.185Z,1.23
2022-12-29T01:55:34.257Z,1.28
2022-12-29T01:58:05.396Z,1.18
2022-12-29T02:00:33.499Z,1.05
2022-12-29T02:03:02.043Z,1.04
2022-12-29T02:05:51.001Z,1.05
2022-12-29T02:08:20.240Z,0.86
2022-12-29T02:10:48.325Z,0.91
2022-12-29T02:13:18.503Z,0.99
2022-12-29T02:15:57.471Z,0.90
2022-12-29T02:18:37.718Z,1.04
2022-12-29T02:21:40.804Z,0.76
2022-12-29T02:24:27.331Z,0.92
2022-12-29T02:27:14.141Z,0.64
2022-12-29T02:30:05.314Z,0.92
2022-12-29T02:32:53.205Z,0.79
2022-12-29T02:35:43.008Z,0.64
2022-12-29T02:38:34.977Z,0.60
2022-12-29T02:41:11.353Z,0.63
2022-12-29T02:43:54.500Z,0.52
2022-12-29T02:46:39.021Z,0.51
2022-12-29T02:49:39.110Z,0.43
2022-12-29T02:52:10.192Z,0.36
2022-12-29T02:54:39.500Z,0.39
2022-12-29T02:57:22.052Z,0.60
2022-12-29T02:59:57.393Z,0.17
2022-12-29T03:02:37.126Z,0.04
2022-12-29T03:05:12.792Z,-0.15
2022-12-29T03:07:40.268Z,-0.15
2022-12-29T03:10:23.165Z,-0.14
2022-12-29T03:13:00.052Z,-0.21
2022-12-29T03:16:06.437Z,-0.13
2022-12-29T03:18:42.866Z,-0.15
2022-12-29T03:21:31.480Z,-0.21
2022-12-29T03:23:59.142Z,-0.23
2022-12-29T03:26:27.655Z,-0.18
2022-12-29T03:28:55.408Z,-0.23
2022-12-29T03:31:24.737Z,-0.20
2022-12-29T03:33:54.352Z,-0.22
2022-12-29T03:36:29.409Z,-0.31
2022-12-29T03:39:02.682Z,-0.27
2022-12-29T03:41:33.054Z,-0.26
2022-12-29T03:44:01.467Z,-0.03
2022-12-29T03:46:29.095Z,-0.27
2022-12-29T03:48:56.823Z,-0.37
2022-12-29T03:51:25.149Z,-0.45
2022-12-29T03:53:53.575Z,-0.41
2022-12-29T03:56:21.467Z,-0.53
2022-12-29T03:58:49.908Z,-0.58
2022-12-29T04:01:18.390Z,-0.70
2022-12-29T04:03:46.728Z,-0.83
2022-12-29T04:06:14.471Z,-0.93
2022-12-29T04:08:43.959Z,-0.94
2022-12-29T04:11:12.377Z,-1.03
2022-12-29T04:13:40.522Z,-1.07
2022-12-29T04:16:09.140Z,-1.07
2022-12-29T04:18:37.657Z,-1.02
2022-12-29T04:21:05.431Z,-1.29
2022-12-29T04:23:35.958Z,-1.54
2022-12-29T04:26:05.100Z,-1.38
2022-12-29T04:28:33.541Z,-1.40
2022-12-29T04:31:01.838Z,-1.40
2022-12-29T04:33:30.340Z,-1.49
2022-12-29T04:35:58.831Z,-1.44
2022-12-29T04:38:26.501Z,-1.55
2022-12-29T04:40:55.218Z,-1.49
2022-12-29T04:43:23.305Z,-1.58
2022-12-29T04:45:54.259Z,-1.56
2022-12-29T04:48:22.811Z,-1.48
2022-12-29T04:50:50.725Z,-1.51
2022-12-29T04:53:18.724Z,-1.55
2022-12-29T04:55:50.906Z,-1.55
2022-12-29T04:58:22.530Z,-1.53
2022-12-29T05:00:52.101Z,-1.62
2022-12-29T05:03:22.198Z,-1.67
2022-12-29T05:05:50.287Z,-1.61
2022-12-29T05:08:21.869Z,-1.56
2022-12-29T05:10:53.424Z,-1.67
2022-12-29T05:13:21.631Z,-1.67
2022-12-29T05:15:53.123Z,-1.56
2022-12-29T05:18:23.688Z,-1.59
2022-12-29T05:20:51.957Z,-1.63
2022-12-29T05:23:19.807Z,-1.48
2022-12-29T05:25:50.173Z,-1.59
2022-12-29T05:28:17.966Z,-1.46
2022-12-29T05:30:49.776Z,-1.42
2022-12-29T05:33:19.791Z,-1.43
2022-12-29T05:35:48.784Z,-1.46
2022-12-29T05:38:16.737Z,-1.28
2022-12-29T05:40:46.789Z,-1.34
2022-12-29T05:43:15.726Z,-1.46
2022-12-29T05:45:44.495Z,-1.42
2022-12-29T05:48:13.053Z,-1.41
2022-12-29T05:50:40.913Z,-1.45
2022-12-29T05:53:09.547Z,-1.42
2022-12-29T05:55:39.216Z,-1.31
2022-12-29T05:58:10.721Z,-1.42
2022-12-29T06:00:38.752Z,-1.40
2022-12-29T06:03:07.458Z,-1.46
2022-12-29T06:05:35.362Z,-1.43
2022-12-29T06:08:02.975Z,-1.51
2022-12-29T06:10:31.926Z,-1.41
2022-12-29T06:13:00.183Z,-1.35
2022-12-29T06:15:27.911Z,-1.47
2022-12-29T06:17:56.340Z,-1.39
2022-12-29T06:20:24.337Z,-1.36
2022-12-29T06:22:51.998Z,-1.47
2022-12-29T06:25:20.068Z,-1.55
2022-12-29T06:27:47.932Z,-1.39
2022-12-29T06:30:18.713Z,-1.47
2022-12-29T06:32:46.659Z,-1.38
2022-12-29T06:35:15.956Z,-1.46
2022-12-29T06:37:46.828Z,-1.30
2022-12-29T06:40:15.490Z,-1.25
2022-12-29T06:42:43.581Z,-1.39
2022-12-29T06:45:11.831Z,-1.42
2022-12-29T06:47:39.570Z,-1.33
2022-12-29T06:50:07.719Z,-1.36
2022-12-29T06:52:35.916Z,-1.32
2022-12-29T06:55:03.648Z,-1.38
2022-12-29T06:57:31.371Z,-1.27
2022-12-29T06:59:59.547Z,-1.30
2022-12-29T07:02:27.918Z,-1.19
2022-12-29T07:04:55.612Z,-1.16
2022-12-29T07:07:23.648Z,-1.23
2022-12-29T07:09:51.424Z,-1.19
2022-12-29T07:12:19.031Z,-1.26
2022-12-29T07:14:47.235Z,-1.13
2022-12-29T07:17:14.974Z,-1.09
2022-12-29T07:19:42.655Z,-1.04
2022-12-29T07:22:10.951Z,-0.98
2022-12-29T07:24:38.598Z,-0.95
2022-12-29T07:27:06.208Z,-0.77
2022-12-29T07:29:34.219Z,-0.73
2022-12-29T07:32:01.874Z,-0.81
2022-12-29T07:34:29.722Z,-0.80
2022-12-29T07:36:57.906Z,-0.83
2022-12-29T07:39:25.563Z,-0.73
2022-12-29T07:41:53.510Z,-0.69
2022-12-29T07:44:21.826Z,-0.66
2022-12-29T07:46:55.781Z,-0.67
2022-12-29T07:49:25.428Z,-0.53
2022-12-29T07:51:53.219Z,-0.58
2022-12-29T07:54:20.847Z,-0.53
2022-12-29T07:56:49.052Z,-0.47
2022-12-29T07:59:17.139Z,-0.34
2022-12-29T08:01:45.003Z,-0.21
2022-12-29T08:04:13.079Z,-0.18
2022-12-29T08:06:40.675Z,-0.11
2022-12-29T08:09:16.471Z,-0.13
2022-12-29T08:11:46.226Z,-0.09
2022-12-29T08:14:17.581Z,0.02
2022-12-29T08:16:45.128Z,0.09
2022-12-29T08:19:13.771Z,0.09
2022-12-29T08:21:41.541Z,0.17
2022-12-29T08:24:09.394Z,0.03
2022-12-29T08:26:37.371Z,0.14
2022-12-29T08:29:05.038Z,0.14
2022-12-29T08:31:32.668Z,0.20
2022-12-29T08:34:00.822Z,0.28
2022-12-29T08:36:28.480Z,0.44
2022-12-29T08:38:56.132Z,0.35
2022-12-29T08:41:24.304Z,0.68
2022-12-29T08:43:51.875Z,0.62
2022-12-29T08:46:19.510Z,0.62
2022-12-29T08:48:47.394Z,0.74
2022-12-29T08:51:15.957Z,0.64
2022-12-29T08:53:45.830Z,0.64
2022-12-29T08:56:13.908Z,0.56
2022-12-29T08:58:41.814Z,0.60
2022-12-29T09:01:10.215Z,0.56
2022-12-29T09:04:12.847Z,0.51
2022-12-29T09:06:27.169Z,0.62
2022-12-29T09:08:55.751Z,0.56
2022-12-29T09:11:24.979Z,0.46
2022-12-29T09:13:53.775Z,0.53
2022-12-29T09:16:24.911Z,0.45
2022-12-29T09:18:52.546Z,0.60
2022-12-29T09:21:20.615Z,0.52
2022-12-29T09:23:49.262Z,0.62
2022-12-29T09:26:17.113Z,0.66
2022-12-29T09:28:45.091Z,0.52
2022-12-29T09:31:13.166Z,0.51
2022-12-29T09:33:41.608Z,0.47
2022-12-29T09:36:09.969Z,0.51
2022-12-29T09:38:39.132Z,0.62
2022-12-29T09:41:38.076Z,0.75
2022-12-29T09:44:21.142Z,0.85
2022-12-29T09:46:51.026Z,0.89
2022-12-29T09:49:39.100Z,0.99
2022-12-29T09:52:26.043Z,0.86
2022-12-29T09:55:07.757Z,0.93
2022-12-29T09:58:11.237Z,0.87
2022-12-29T10:00:55.164Z,0.89
2022-12-29T10:03:26.022Z,1.06
2022-12-29T10:06:28.651Z,1.08
2022-12-29T10:09:25.894Z,1.09
2022-12-29T10:12:15.333Z,1.23
2022-12-29T10:15:08.077Z,1.15
2022-12-29T10:17:54.613Z,1.15
2022-12-29T10:20:53.292Z,0.95
2022-12-29T10:23:29.614Z,1.04
2022-12-29T10:25:58.984Z,1.11
2022-12-29T10:28:51.597Z,1.16
2022-12-29T10:31:24.537Z,1.12
2022-12-29T10:33:58.883Z,1.26
2022-12-29T10:36:34.648Z,1.19
2022-12-29T10:39:14.491Z,1.32
2022-12-29T10:41:47.050Z,1.43
2022-12-29T10:44:19.392Z,1.23
2022-12-29T10:47:00.928Z,1.32
2022-12-29T10:49:29.619Z,1.38
2022-12-29T10:51:59.829Z,1.38
2022-12-29T10:54:42.195Z,1.26
2022-12-29T10:57:33.380Z,1.25
2022-12-29T11:00:01.117Z,1.20
2022-12-29T11:02:44.501Z,1.23
2022-12-29T11:05:51.008Z,1.31
2022-12-29T11:08:22.919Z,1.37
2022-12-29T11:11:03.261Z,1.45
2022-12-29T11:13:51.910Z,1.44
2022-12-29T11:16:31.771Z,1.69
2022-12-29T11:19:00.061Z,1.69
2022-12-29T11:21:35.750Z,1.63
2022-12-29T11:24:05.606Z,1.60
2022-12-29T11:26:37.167Z,2.89
2022-12-29T11:29:08.691Z,3.44
2022-12-29T11:31:54.069Z,2.62
2022-12-29T11:34:33.641Z,2.37
2022-12-29T11:37:07.514Z,2.53
2022-12-29T11:39:35.396Z,2.87
2022-12-29T11:42:03.899Z,3.08
2022-12-29T11:44:37.505Z,3.34
2022-12-29T11:47:06.537Z,3.78
2022-12-29T11:49:34.200Z,4.28
2022-12-29T11:52:02.228Z,4.34
2022-12-29T11:54:33.118Z,4.32
2022-12-29T11:57:14.454Z,5.16
2022-12-29T11:59:42.310Z,4.99
2022-12-29T12:02:17.282Z,5.54
2022-12-29T12:04:45.606Z,6.60
2022-12-29T12:07:16.816Z,5.86
2022-12-29T12:09:50.692Z,5.36
2022-12-29T12:12:36.418Z,5.66
2022-12-29T12:15:05.689Z,5.39
2022-12-29T12:17:51.688Z,4.98
2022-12-29T12:20:29.033Z,5.04
2022-12-29T12:23:17.279Z,5.07
2022-12-29T12:25:53.534Z,5.42
2022-12-29T12:28:24.317Z,5.11
2022-12-29T12:30:56.505Z,4.83
2022-12-29T12:33:37.886Z,4.82
2022-12-29T12:36:14.665Z,4.96
2022-12-29T12:39:13.286Z,5.04
2022-12-29T12:42:02.547Z,5.30
2022-12-29T12:44:57.599Z,5.50
2022-12-29T12:48:03.549Z,5.90
2022-12-29T12:50:38.169Z,5.86
2022-12-29T12:53:15.701Z,5.41
2022-12-29T12:56:04.486Z,5.05
2022-12-29T12:58:40.577Z,5.09
2022-12-29T13:01:29.978Z,5.26
2022-12-29T13:04:03.679Z,5.37
2022-12-29T13:06:57.725Z,5.69
2022-12-29T13:09:46.820Z,5.59
2022-12-29T13:12:31.242Z,5.52
2022-12-29T13:15:11.476Z,5.49
2022-12-29T13:18:11.305Z,6.12
2022-12-29T13:21:04.912Z,6.35
2022-12-29T13:23:45.825Z,5.68
2022-12-29T13:26:21.503Z,5.34
2022-12-29T13:29:27.945Z,4.95
2022-12-29T13:32:26.607Z,4.80
2022-12-29T13:35:09.866Z,5.43
2022-12-29T13:38:10.632Z,5.21
2022-12-29T13:40:44.477Z,6.65
2022-12-29T13:43:13.656Z,6.52
2022-12-29T13:45:41.817Z,5.66
2022-12-29T13:48:23.277Z,5.59
2022-12-29T13:50:56.885Z,5.69
2022-12-29T13:53:53.768Z,5.37
2022-12-29T13:56:38.263Z,4.90
2022-12-29T13:59:11.555Z,4.30
2022-12-29T14:01:48.236Z,4.17
2022-12-29T14:04:29.320Z,4.09
2022-12-29T14:07:05.817Z,4.06
2022-12-29T14:09:44.318Z,3.91
2022-12-29T14:12:25.416Z,3.92
2022-12-29T14:14:53.411Z,4.27
2022-12-29T14:17:22.106Z,3.82
2022-12-29T14:19:53.715Z,4.04
2022-12-29T14:22:32.725Z,3.93
2022-12-29T14:25:01.165Z,3.79
2022-12-29T14:27:29.131Z,3.72
2022-12-29T14:29:56.899Z,3.57
2022-12-29T14:32:27.320Z,3.36
2022-12-29T14:35:32.957Z,3.57
2022-12-29T14:38:27.675Z,3.56
2022-12-29T14:41:38.318Z,2.94
2022-12-29T14:44:08.591Z,2.85
2022-12-29T14:46:48.092Z,2.94
2022-12-29T14:49:21.657Z,2.94
2022-12-29T14:51:52.147Z,3.75
2022-12-29T14:54:43.394Z,3.57
2022-12-29T14:57:20.284Z,3.69
2022-12-29T14:59:49.554Z,3.33
2022-12-29T15:02:20.920Z,3.21
2022-12-29T15:04:49.173Z,3.18
2022-12-29T15:07:19.690Z,2.93
2022-12-29T15:09:53.444Z,2.84
2022-12-29T15:12:27.454Z,2.76
2022-12-29T15:15:02.303Z,2.43
2022-12-29T15:17:43.681Z,2.28
2022-12-29T15:20:17.606Z,2.25
2022-12-29T15:22:47.943Z,2.25
2022-12-29T15:25:18.390Z,2.19
2022-12-29T15:27:51.511Z,2.17
2022-12-29T15:30:19.779Z,1.99
2022-12-29T15:32:49.336Z,2.07
2022-12-29T15:35:37.769Z,2.05
2022-12-29T15:38:24.755Z,2.09
2022-12-29T15:41:03.650Z,0.85
2022-12-29T15:43:43.330Z,0.59
2022-12-29T15:46:14.978Z,0.47
2022-12-29T15:48:43.189Z,1.45
2022-12-29T15:51:22.061Z,1.75
2022-12-29T15:53:52.913Z,1.83
2022-12-29T15:56:20.708Z,1.91
2022-12-29T15:58:52.755Z,1.90
2022-12-29T16:01:33.438Z,1.70
2022-12-29T16:04:07.898Z,1.90
2022-12-29T16:06:40.593Z,1.92
2022-12-29T16:09:22.404Z,1.91
2022-12-29T16:11:56.095Z,1.99
2022-12-29T16:14:32.523Z,1.93
2022-12-29T16:17:03.172Z,1.90
2022-12-29T16:19:37.961Z,1.95
2022-12-29T16:22:17.582Z,1.89
2022-12-29T16:24:46.299Z,1.82
2022-12-29T16:27:43.689Z,1.86
2022-12-29T16:30:32.840Z,1.85
2022-12-29T16:33:03.263Z,1.80
2022-12-29T16:35:46.807Z,1.75
2022-12-29T16:38:21.878Z,1.79
2022-12-29T16:40:52.771Z,1.58
2022-12-29T16:43:46.373Z,1.58
2022-12-29T16:46:33.329Z,1.73
2022-12-29T16:49:03.453Z,1.84
2022-12-29T16:51:36.622Z,1.71
2022-12-29T16:54:05.062Z,1.73
2022-12-29T16:56:35.326Z,1.71
2022-12-29T16:59:22.390Z,1.75
2022-12-29T17:01:50.456Z,1.73
2022-12-29T17:04:21.153Z,1.08
2022-12-29T17:06:48.796Z,0.44
2022-12-29T17:09:22.236Z,0.34
2022-12-29T17:11:58.372Z,0.30
2022-12-29T17:14:46.527Z,0.35
2022-12-29T17:17:41.888Z,0.37
2022-12-29T17:20:24.455Z,0.31
2022-12-29T17:22:53.419Z,0.35
2022-12-29T17:25:24.318Z,0.43
2022-12-29T17:27:58.613Z,0.42
2022-12-29T17:30:36.793Z,0.43
2022-12-29T17:33:06.154Z,0.43
2022-12-29T17:35:35.328Z,0.35
2022-12-29T17:38:03.003Z,0.40
2022-12-29T17:40:32.646Z,0.46
2022-12-29T17:43:00.660Z,0.47
2022-12-29T17:45:30.112Z,0.50
2022-12-29T17:47:58.886Z,1.69
2022-12-29T17:50:27.963Z,0.80
2022-12-29T17:53:03.788Z,0.59
2022-12-29T17:55:37.940Z,0.47
2022-12-29T17:58:27.873Z,0.51
2022-12-29T18:00:58.156Z,0.47
2022-12-29T18:03:32.746Z,0.55
2022-12-29T18:06:01.331Z,0.50
2022-12-29T18:08:30.346Z,0.53
2022-12-29T18:10:58.888Z,0.51
2022-12-29T18:13:43.669Z,0.53
2022-12-29T18:16:15.889Z,0.66
2022-12-29T18:18:44.087Z,0.53
2022-12-29T18:21:17.567Z,0.49
2022-12-29T18:23:46.419Z,0.49
2022-12-29T18:26:27.255Z,0.56
2022-12-29T18:28:57.308Z,0.60
2022-12-29T18:31:33.593Z,1.70
2022-12-29T18:34:06.927Z,2.09
2022-12-29T18:36:34.650Z,2.08
2022-12-29T18:39:02.677Z,2.05
2022-12-29T18:41:30.345Z,2.21
2022-12-29T18:43:58.559Z,2.24
2022-12-29T18:46:26.575Z,2.17
2022-12-29T18:48:54.689Z,2.19
2022-12-29T18:51:24.149Z,2.34
2022-12-29T18:53:53.486Z,2.28
2022-12-29T18:56:21.306Z,2.49
2022-12-29T18:58:48.964Z,2.37
2022-12-29T19:01:22.636Z,2.24
2022-12-29T19:03:50.961Z,1.04
2022-12-29T19:06:21.588Z,0.67
2022-12-29T19:08:49.296Z,0.71
2022-12-29T19:11:17.407Z,0.81
2022-12-29T19:13:45.647Z,0.88
2022-12-29T19:16:18.866Z,0.85
2022-12-29T19:18:55.781Z,0.82
2022-12-29T19:21:31.612Z,0.80
2022-12-29T19:23:59.586Z,0.71
2022-12-29T19:26:33.082Z,0.79
2022-12-29T19:29:01.324Z,0.74
2022-12-29T19:31:30.109Z,0.72
2022-12-29T19:33:57.875Z,0.81
2022-12-29T19:36:25.780Z,0.74
2022-12-29T19:38:55.089Z,0.78
2022-12-29T19:41:23.942Z,0.79
2022-12-29T19:43:51.922Z,0.74
2022-12-29T19:46:20.170Z,0.72
2022-12-29T19:48:48.075Z,0.61
2022-12-29T19:51:16.630Z,0.68
2022-12-29T19:53:46.049Z,0.80
2022-12-29T19:56:14.501Z,0.82
2022-12-29T19:58:46.986Z,0.83
2022-12-29T20:01:18.447Z,0.74
2022-12-29T20:03:46.696Z,0.81
2022-12-29T20:06:15.569Z,0.79
2022-12-29T20:08:43.470Z,0.77
2022-12-29T20:11:13.954Z,0.80
2022-12-29T20:13:42.551Z,0.77
2022-12-29T20:16:14.572Z,0.74
2022-12-29T20:18:43.658Z,0.61
2022-12-29T20:21:14.031Z,0.63
2022-12-29T20:23:42.728Z,0.74
2022-12-29T20:26:18.914Z,0.66
2022-12-29T20:28:47.167Z,0.73
2022-12-29T20:31:21.521Z,0.77
2022-12-29T20:33:49.554Z,0.76
2022-12-29T20:36:20.468Z,0.70
2022-12-29T20:38:48.712Z,0.68
2022-12-29T20:41:17.217Z,0.58
2022-12-29T20:43:44.991Z,0.60
2022-12-29T20:46:13.159Z,0.70
2022-12-29T20:48:41.905Z,0.66
2022-12-29T20:51:09.690Z,0.64
2022-12-29T20:53:38.193Z,0.66
2022-12-29T20:56:10.092Z,0.70
2022-12-29T20:59:00.209Z,0.72
2022-12-29T21:01:26.680Z,0.71
2022-12-29T21:03:54.395Z,0.63
2022-12-29T21:06:22.031Z,0.67
2022-12-29T21:08:50.818Z,0.73
2022-12-29T21:11:18.729Z,0.79
2022-12-29T21:13:46.391Z,0.73
2022-12-29T21:16:14.980Z,1.11
2022-12-29T21:18:45.680Z,0.82
2022-12-29T21:21:21.403Z,0.69
2022-12-29T21:23:49.829Z,0.73
2022-12-29T21:26:20.647Z,0.68
2022-12-29T21:28:51.442Z,0.81
2022-12-29T21:31:22.175Z,0.86
2022-12-29T21:33:50.312Z,0.75
2022-12-29T21:36:17.906Z,0.76
2022-12-29T21:38:46.066Z,0.74
2022-12-29T21:41:15.040Z,0.69
2022-12-29T21:43:43.433Z,0.79
2022-12-29T21:46:11.443Z,1.50
2022-12-29T21:48:39.241Z,1.09
2022-12-29T21:51:09.388Z,0.85
2022-12-29T21:53:39.851Z,0.88
2022-12-29T21:56:18.534Z,1.63
2022-12-29T21:58:48.061Z,2.24
2022-12-29T22:01:16.079Z,2.33
2022-12-29T22:03:44.165Z,2.39
2022-12-29T22:06:11.836Z,2.62
2022-12-29T22:08:40.292Z,2.48
2022-12-29T22:11:08.799Z,2.50
2022-12-29T22:13:38.198Z,2.57
2022-12-29T22:16:10.999Z,2.61
2022-12-29T22:18:39.145Z,2.52
2022-12-29T22:21:08.560Z,2.56
2022-12-29T22:23:42.082Z,2.57
2022-12-29T22:26:11.954Z,2.57
2022-12-29T22:28:41.473Z,2.59
2022-12-29T22:31:28.333Z,2.46
2022-12-29T22:33:57.200Z,2.52
2022-12-29T22:36:25.188Z,2.40
2022-12-29T22:38:52.982Z,2.48
2022-12-29T22:41:20.993Z,2.46
2022-12-29T22:43:51.885Z,2.59
2022-12-29T22:46:19.534Z,2.52
2022-12-29T22:48:47.596Z,2.39
2022-12-29T22:51:15.401Z,2.44
2022-12-29T22:53:43.069Z,2.43
2022-12-29T22:56:13.742Z,2.46
2022-12-29T22:58:42.844Z,2.36
2022-12-29T23:01:12.285Z,2.25
2022-12-29T23:03:40.956Z,2.32
2022-12-29T23:06:12.057Z,2.30
2022-12-29T23:08:40.240Z,2.42
2022-12-29T23:11:10.755Z,2.66
2022-12-29T23:13:39.190Z,2.72
2022-12-29T23:16:07.305Z,2.61
2022-12-29T23:18:35.066Z,2.90
2022-12-29T23:21:02.862Z,2.89
2022-12-29T23:23:30.763Z,2.83
2022-12-29T23:26:00.570Z,2.91
2022-12-29T23:28:28.147Z,3.01
2022-12-29T23:30:56.093Z,3.15
2022-12-29T23:33:23.769Z,2.98
2022-12-29T23:35:51.585Z,2.93
2022-12-29T23:38:19.493Z,3.14
2022-12-29T23:40:47.240Z,2.88
2022-12-29T23:43:15.555Z,3.07
2022-12-29T23:45:48.929Z,3.17
2022-12-29T23:48:18.761Z,3.21
2022-12-29T23:50:46.995Z,3.12
2022-12-29T23:53:14.850Z,3.34
2022-12-29T23:55:43.516Z,3.44
2022-12-29T23:58:11.588Z,3.41
